sensor_id;sensor_type;location;lat;lon;timestamp;pressure;altitude;pressure_sealevel;temperature;humidity
18988;BME280;5494;51.796;10.952;2023-02-04T00:00:26;99824.28;;;5.20;100.00
18988;BME280;5494;51.796;10.952;2023-02-04T00:02:55;99831.16;;;5.20;100.00
18988;BME280;5494;51.796;10.952;2023-02-04T00:05:24;99831.13;;;5.23;100.00
18988;BME280;5494;51.796;10.952;2023-02-04T00:07:52;99843.16;;;5.24;100.00
18988;BME280;5494;51.796;10.952;2023-02-04T00:10:20;99845.78;;;5.19;100.00
18988;BME280;5494;51.796;10.952;2023-02-04T00:12:48;99855.28;;;5.15;100.00
18988;BME280;5494;51.796;10.952;2023-02-04T00:15:16;99867.34;;;5.12;100.00
18988;BME280;5494;51.796;10.952;2023-02-04T00:17:44;99865.63;;;5.12;100.00
18988;BME280;5494;51.796;10.952;2023-02-04T00:20:12;99869.94;;;5.12;100.00
18988;BME280;5494;51.796;10.952;2023-02-04T00:22:41;99872.50;;;5.13;100.00
18988;BME280;5494;51.796;10.952;2023-02-04T00:25:09;99883.66;;;5.14;100.00
18988;BME280;5494;51.796;10.952;2023-02-04T00:27:37;99890.53;;;5.13;100.00
18988;BME280;5494;51.796;10.952;2023-02-04T00:30:07;99906.00;;;5.12;100.00
18988;BME280;5494;51.796;10.952;2023-02-04T00:32:36;99943.78;;;5.14;100.00
18988;BME280;5494;51.796;10.952;2023-02-04T00:35:05;99958.41;;;4.36;100.00
18988;BME280;5494;51.796;10.952;2023-02-04T00:37:33;99981.44;;;3.44;100.00
18988;BME280;5494;51.796;10.952;2023-02-04T00:40:06;99986.81;;;3.03;100.00
18988;BME280;5494;51.796;10.952;2023-02-04T00:42:34;99989.38;;;2.93;100.00
18988;BME280;5494;51.796;10.952;2023-02-04T00:45:02;99999.72;;;2.79;100.00
18988;BME280;5494;51.796;10.952;2023-02-04T00:47:30;100003.13;;;2.87;100.00
18988;BME280;5494;51.796;10.952;2023-02-04T00:49:58;100004.81;;;2.90;100.00
18988;BME280;5494;51.796;10.952;2023-02-04T00:52:26;100007.38;;;2.97;100.00
18988;BME280;5494;51.796;10.952;2023-02-04T00:54:53;100009.06;;;3.01;100.00
18988;BME280;5494;51.796;10.952;2023-02-04T00:57:23;100015.00;;;3.05;100.00
18988;BME280;5494;51.796;10.952;2023-02-04T00:59:51;100023.59;;;2.99;100.00
18988;BME280;5494;51.796;10.952;2023-02-04T01:02:19;100025.31;;;3.02;100.00
18988;BME280;5494;51.796;10.952;2023-02-04T01:04:47;100036.41;;;3.05;100.00
18988;BME280;5494;51.796;10.952;2023-02-04T01:07:16;100037.28;;;3.10;100.00
18988;BME280;5494;51.796;10.952;2023-02-04T01:09:44;100050.97;;;3.17;100.00
18988;BME280;5494;51.796;10.952;2023-02-04T01:12:13;100062.09;;;3.13;100.00
18988;BME280;5494;51.796;10.952;2023-02-04T01:14:42;100065.50;;;3.13;100.00
18988;BME280;5494;51.796;10.952;2023-02-04T01:17:10;100072.34;;;3.13;100.00
18988;BME280;5494;51.796;10.952;2023-02-04T01:19:38;100080.03;;;3.19;100.00
18988;BME280;5494;51.796;10.952;2023-02-04T01:22:06;100074.88;;;3.25;100.00
18988;BME280;5494;51.796;10.952;2023-02-04T01:24:34;100074.06;;;3.22;100.00
18988;BME280;5494;51.796;10.952;2023-02-04T01:27:20;100086.84;;;3.35;100.00
18988;BME280;5494;51.796;10.952;2023-02-04T01:29:49;100085.09;;;3.40;100.00
18988;BME280;5494;51.796;10.952;2023-02-04T01:32:17;100091.13;;;3.38;100.00
18988;BME280;5494;51.796;10.952;2023-02-04T01:34:45;100102.25;;;3.43;100.00
18988;BME280;5494;51.796;10.952;2023-02-04T01:37:13;100108.22;;;3.45;100.00
18988;BME280;5494;51.796;10.952;2023-02-04T01:39:41;100109.94;;;3.43;100.00
18988;BME280;5494;51.796;10.952;2023-02-04T01:42:10;100113.38;;;3.42;100.00
18988;BME280;5494;51.796;10.952;2023-02-04T01:44:38;100123.69;;;3.39;100.00
18988;BME280;5494;51.796;10.952;2023-02-04T01:47:08;100129.66;;;3.33;100.00
18988;BME280;5494;51.796;10.952;2023-02-04T01:49:37;100127.97;;;3.35;100.00
18988;BME280;5494;51.796;10.952;2023-02-04T01:52:06;100147.66;;;3.38;100.00
18988;BME280;5494;51.796;10.952;2023-02-04T01:54:35;100157.06;;;3.40;100.00
18988;BME280;5494;51.796;10.952;2023-02-04T01:57:08;100165.66;;;3.30;100.00
18988;BME280;5494;51.796;10.952;2023-02-04T01:59:41;100175.06;;;3.33;100.00
18988;BME280;5494;51.796;10.952;2023-02-04T02:02:44;100181.06;;;3.26;100.00
18988;BME280;5494;51.796;10.952;2023-02-04T02:05:16;100193.91;;;3.36;100.00
18988;BME280;5494;51.796;10.952;2023-02-04T02:07:47;100187.91;;;3.36;100.00
18988;BME280;5494;51.796;10.952;2023-02-04T02:10:17;100191.34;;;3.33;100.00
18988;BME280;5494;51.796;10.952;2023-02-04T02:12:47;100207.63;;;3.28;100.00
18988;BME280;5494;51.796;10.952;2023-02-04T02:15:16;100212.78;;;3.31;100.00
18988;BME280;5494;51.796;10.952;2023-02-04T02:17:49;100228.16;;;3.26;100.00
18988;BME280;5494;51.796;10.952;2023-02-04T02:20:21;100229.91;;;3.24;100.00
18988;BME280;5494;51.796;10.952;2023-02-04T02:23:00;100235.06;;;3.16;100.00
18988;BME280;5494;51.796;10.952;2023-02-04T02:25:31;100236.75;;;3.14;100.00
18988;BME280;5494;51.796;10.952;2023-02-04T02:28:07;100239.34;;;3.17;100.00
18988;BME280;5494;51.796;10.952;2023-02-04T02:30:36;100242.75;;;3.10;100.00
18988;BME280;5494;51.796;10.952;2023-02-04T02:33:05;100250.44;;;3.12;100.00
18988;BME280;5494;51.796;10.952;2023-02-04T02:35:33;100254.72;;;3.05;100.00
18988;BME280;5494;51.796;10.952;2023-02-04T02:38:01;100267.56;;;2.99;100.00
18988;BME280;5494;51.796;10.952;2023-02-04T02:40:31;100272.72;;;3.02;100.00
18988;BME280;5494;51.796;10.952;2023-02-04T02:43:00;100276.13;;;2.92;100.00
18988;BME280;5494;51.796;10.952;2023-02-04T02:45:30;100277.84;;;2.89;100.00
18988;BME280;5494;51.796;10.952;2023-02-04T02:48:01;100283.81;;;2.78;100.00
18988;BME280;5494;51.796;10.952;2023-02-04T02:50:32;100280.41;;;2.87;100.00
18988;BME280;5494;51.796;10.952;2023-02-04T02:53:01;100287.25;;;2.79;100.00
18988;BME280;5494;51.796;10.952;2023-02-04T02:55:31;100294.09;;;2.80;100.00
18988;BME280;5494;51.796;10.952;2023-02-04T02:58:19;100299.19;;;2.72;100.00
18988;BME280;5494;51.796;10.952;2023-02-04T03:00:48;100303.50;;;2.69;100.00
18988;BME280;5494;51.796;10.952;2023-02-04T03:03:24;100307.75;;;2.65;100.00
18988;BME280;5494;51.796;10.952;2023-02-04T03:05:56;100319.69;;;2.53;100.00
18988;BME280;5494;51.796;10.952;2023-02-04T03:08:27;100319.66;;;2.50;100.00
18988;BME280;5494;51.796;10.952;2023-02-04T03:10:56;100330.81;;;2.56;100.00
18988;BME280;5494;51.796;10.952;2023-02-04T03:13:24;100329.94;;;2.50;100.00
18988;BME280;5494;51.796;10.952;2023-02-04T03:15:56;100332.50;;;2.47;100.00
18988;BME280;5494;51.796;10.952;2023-02-04T03:18:24;100342.75;;;2.44;100.00
18988;BME280;5494;51.796;10.952;2023-02-04T03:20:52;100352.94;;;2.25;100.00
18988;BME280;5494;51.796;10.952;2023-02-04T03:23:20;100360.63;;;2.30;100.00
18988;BME280;5494;51.796;10.952;2023-02-04T03:25:48;100347.81;;;2.31;100.00
18988;BME280;5494;51.796;10.952;2023-02-04T03:28:18;100364.91;;;2.29;100.00
18988;BME280;5494;51.796;10.952;2023-02-04T03:30:46;100376.06;;;2.33;100.00
18988;BME280;5494;51.796;10.952;2023-02-04T03:33:19;100382.03;;;2.27;100.00
18988;BME280;5494;51.796;10.952;2023-02-04T03:35:47;100395.63;;;2.17;100.00
18988;BME280;5494;51.796;10.952;2023-02-04T03:38:16;100395.63;;;2.17;100.00
18988;BME280;5494;51.796;10.952;2023-02-04T03:40:45;100401.66;;;2.21;100.00
18988;BME280;5494;51.796;10.952;2023-02-04T03:43:13;100409.34;;;2.22;100.00
18988;BME280;5494;51.796;10.952;2023-02-04T03:45:46;100420.44;;;2.20;100.00
18988;BME280;5494;51.796;10.952;2023-02-04T03:48:14;100416.16;;;2.17;100.00
18988;BME280;5494;51.796;10.952;2023-02-04T03:50:42;100433.19;;;2.06;100.00
18988;BME280;5494;51.796;10.952;2023-02-04T03:53:10;100433.09;;;1.97;100.00
18988;BME280;5494;51.796;10.952;2023-02-04T03:55:38;100442.47;;;1.95;100.00
18988;BME280;5494;51.796;10.952;2023-02-04T03:58:06;100441.66;;;1.96;100.00
18988;BME280;5494;51.796;10.952;2023-02-04T04:00:34;100453.56;;;1.89;100.00
18988;BME280;5494;51.796;10.952;2023-02-04T04:03:04;100463.00;;;1.93;100.00
18988;BME280;5494;51.796;10.952;2023-02-04T04:05:32;100463.00;;;1.96;100.00
18988;BME280;5494;51.796;10.952;2023-02-04T04:08:00;100466.47;;;1.98;100.00
18988;BME280;5494;51.796;10.952;2023-02-04T04:10:28;100463.84;;;1.94;100.00
18988;BME280;5494;51.796;10.952;2023-02-04T04:12:57;100474.91;;;1.88;100.00
18988;BME280;5494;51.796;10.952;2023-02-04T04:15:25;100477.50;;;1.90;100.00
18988;BME280;5494;51.796;10.952;2023-02-04T04:17:53;100474.09;;;1.92;100.00
18988;BME280;5494;51.796;10.952;2023-02-04T04:20:22;100479.34;;;2.06;100.00
18988;BME280;5494;51.796;10.952;2023-02-04T04:22:52;100491.25;;;1.98;100.00
18988;BME280;5494;51.796;10.952;2023-02-04T04:25:20;100495.47;;;1.93;100.00
18988;BME280;5494;51.796;10.952;2023-02-04T04:27:48;100504.09;;;2.04;100.00
18988;BME280;5494;51.796;10.952;2023-02-04T04:30:17;100502.38;;;2.00;100.00
18988;BME280;5494;51.796;10.952;2023-02-04T04:32:45;100512.53;;;1.91;100.00
18988;BME280;5494;51.796;10.952;2023-02-04T04:35:13;100515.13;;;1.92;100.00
18988;BME280;5494;51.796;10.952;2023-02-04T04:37:42;100522.00;;;1.96;100.00
18988;BME280;5494;51.796;10.952;2023-02-04T04:40:11;100523.63;;;1.90;100.00
18988;BME280;5494;51.796;10.952;2023-02-04T04:42:39;100532.97;;;1.82;100.00
18988;BME280;5494;51.796;10.952;2023-02-04T04:45:09;100538.94;;;1.81;100.00
18988;BME280;5494;51.796;10.952;2023-02-04T04:47:37;100537.19;;;1.80;100.00
18988;BME280;5494;51.796;10.952;2023-02-04T04:50:06;100549.84;;;1.62;100.00
18988;BME280;5494;51.796;10.952;2023-02-04T04:52:34;100553.22;;;1.57;100.00
18988;BME280;5494;51.796;10.952;2023-02-04T04:55:04;100557.38;;;1.48;100.00
18988;BME280;5494;51.796;10.952;2023-02-04T04:57:34;100567.50;;;1.37;100.00
18988;BME280;5494;51.796;10.952;2023-02-04T05:00:02;100569.94;;;1.27;100.00
18988;BME280;5494;51.796;10.952;2023-02-04T05:02:30;100574.25;;;1.32;100.00
18988;BME280;5494;51.796;10.952;2023-02-04T05:04:59;100575.13;;;1.31;100.00
18988;BME280;5494;51.796;10.952;2023-02-04T05:07:27;100579.56;;;1.47;100.00
18988;BME280;5494;51.796;10.952;2023-02-04T05:09:55;100584.06;;;1.65;100.00
18988;BME280;5494;51.796;10.952;2023-02-04T05:12:24;100582.41;;;1.73;100.00
18988;BME280;5494;51.796;10.952;2023-02-04T05:14:52;100597.03;;;1.79;100.00
18988;BME280;5494;51.796;10.952;2023-02-04T05:17:20;100589.34;;;1.79;100.00
18988;BME280;5494;51.796;10.952;2023-02-04T05:19:48;100595.25;;;1.72;100.00
18988;BME280;5494;51.796;10.952;2023-02-04T05:22:15;100599.63;;;1.83;100.00
18988;BME280;5494;51.796;10.952;2023-02-04T05:24:43;100594.66;;;1.97;100.00
18988;BME280;5494;51.796;10.952;2023-02-04T05:27:11;100592.97;;;2.02;100.00
18988;BME280;5494;51.796;10.952;2023-02-04T05:29:40;100590.50;;;2.10;100.00
18988;BME280;5494;51.796;10.952;2023-02-04T05:32:11;100604.25;;;2.19;100.00
18988;BME280;5494;51.796;10.952;2023-02-04T05:34:39;100612.75;;;2.15;100.00
18988;BME280;5494;51.796;10.952;2023-02-04T05:37:07;100619.72;;;2.25;100.00
18988;BME280;5494;51.796;10.952;2023-02-04T05:39:35;100620.59;;;2.30;100.00
18988;BME280;5494;51.796;10.952;2023-02-04T05:42:03;100628.28;;;2.27;100.00
18988;BME280;5494;51.796;10.952;2023-02-04T05:44:31;100634.38;;;2.38;100.00
18988;BME280;5494;51.796;10.952;2023-02-04T05:47:00;100637.75;;;2.34;100.00
18988;BME280;5494;51.796;10.952;2023-02-04T05:49:28;100640.34;;;2.34;100.00
18988;BME280;5494;51.796;10.952;2023-02-04T05:51:56;100647.16;;;2.32;100.00
18988;BME280;5494;51.796;10.952;2023-02-04T05:54:24;100641.97;;;2.29;100.00
18988;BME280;5494;51.796;10.952;2023-02-04T05:56:52;100637.75;;;2.34;100.00
18988;BME280;5494;51.796;10.952;2023-02-04T05:59:20;100635.19;;;2.34;100.00
18988;BME280;5494;51.796;10.952;2023-02-04T06:01:48;100638.47;;;2.21;100.00
18988;BME280;5494;51.796;10.952;2023-02-04T06:04:17;100648.88;;;2.33;100.00
18988;BME280;5494;51.796;10.952;2023-02-04T06:06:46;100645.47;;;2.37;100.00
18988;BME280;5494;51.796;10.952;2023-02-04T06:09:13;100645.53;;;2.44;100.00
18988;BME280;5494;51.796;10.952;2023-02-04T06:11:41;100646.44;;;2.47;100.00
18988;BME280;5494;51.796;10.952;2023-02-04T06:14:09;100652.44;;;2.52;100.00
18988;BME280;5494;51.796;10.952;2023-02-04T06:16:38;100659.31;;;2.55;100.00
18988;BME280;5494;51.796;10.952;2023-02-04T06:19:06;100665.31;;;2.57;100.00
18988;BME280;5494;51.796;10.952;2023-02-04T06:21:35;100670.44;;;2.54;100.00
18988;BME280;5494;51.796;10.952;2023-02-04T06:24:04;100673.88;;;2.54;100.00
18988;BME280;5494;51.796;10.952;2023-02-04T06:26:32;100678.09;;;2.48;100.00
18988;BME280;5494;51.796;10.952;2023-02-04T06:29:00;100682.41;;;2.53;100.00
18988;BME280;5494;51.796;10.952;2023-02-04T06:31:28;100686.72;;;2.57;100.00
18988;BME280;5494;51.796;10.952;2023-02-04T06:33:56;100696.06;;;2.48;100.00
18988;BME280;5494;51.796;10.952;2023-02-04T06:36:24;100699.31;;;2.33;100.00
18988;BME280;5494;51.796;10.952;2023-02-04T06:38:54;100708.78;;;2.38;100.00
18988;BME280;5494;51.796;10.952;2023-02-04T06:41:22;100709.63;;;2.39;100.00
18988;BME280;5494;51.796;10.952;2023-02-04T06:43:50;100709.63;;;2.39;100.00
18988;BME280;5494;51.796;10.952;2023-02-04T06:46:21;100719.94;;;2.44;100.00
18988;BME280;5494;51.796;10.952;2023-02-04T06:48:49;100722.38;;;2.31;100.00
18988;BME280;5494;51.796;10.952;2023-02-04T06:51:17;100722.34;;;2.28;100.00
18988;BME280;5494;51.796;10.952;2023-02-04T06:53:45;100736.00;;;2.24;100.00
18988;BME280;5494;51.796;10.952;2023-02-04T06:56:14;100738.44;;;2.15;100.00
18988;BME280;5494;51.796;10.952;2023-02-04T06:58:42;100742.47;;;1.93;100.00
18988;BME280;5494;51.796;10.952;2023-02-04T07:01:10;100742.41;;;1.89;100.00
18988;BME280;5494;51.796;10.952;2023-02-04T07:03:38;100743.25;;;1.86;100.00
18988;BME280;5494;51.796;10.952;2023-02-04T07:06:06;100750.81;;;1.79;100.00
18988;BME280;5494;51.796;10.952;2023-02-04T07:08:37;100746.47;;;1.75;100.00
18988;BME280;5494;51.796;10.952;2023-02-04T07:11:05;100752.44;;;1.74;100.00
18988;BME280;5494;51.796;10.952;2023-02-04T07:13:34;100753.31;;;1.73;100.00
18988;BME280;5494;51.796;10.952;2023-02-04T07:16:03;100753.41;;;1.82;100.00
18988;BME280;5494;51.796;10.952;2023-02-04T07:18:33;100759.44;;;1.84;100.00
18988;BME280;5494;51.796;10.952;2023-02-04T07:21:00;100764.59;;;1.87;100.00
18988;BME280;5494;51.796;10.952;2023-02-04T07:23:28;100765.63;;;2.01;100.00
18988;BME280;5494;51.796;10.952;2023-02-04T07:25:56;100774.31;;;2.11;100.00
18988;BME280;5494;51.796;10.952;2023-02-04T07:28:27;100776.97;;;2.21;100.00
18988;BME280;5494;51.796;10.952;2023-02-04T07:30:58;100786.41;;;2.21;100.00
18988;BME280;5494;51.796;10.952;2023-02-04T07:33:26;100789.81;;;2.20;100.00
18988;BME280;5494;51.796;10.952;2023-02-04T07:35:54;100793.38;;;2.31;100.00
18988;BME280;5494;51.796;10.952;2023-02-04T07:38:22;100797.63;;;2.30;100.00
18988;BME280;5494;51.796;10.952;2023-02-04T07:40:50;100799.34;;;2.31;100.00
18988;BME280;5494;51.796;10.952;2023-02-04T07:43:18;100806.34;;;2.42;100.00
18988;BME280;5494;51.796;10.952;2023-02-04T07:45:46;100804.69;;;2.48;100.00
18988;BME280;5494;51.796;10.952;2023-02-04T07:48:15;100806.34;;;2.45;100.00
18988;BME280;5494;51.796;10.952;2023-02-04T07:50:43;100810.66;;;2.47;100.00
18988;BME280;5494;51.796;10.952;2023-02-04T07:53:11;100806.53;;;2.60;100.00
18988;BME280;5494;51.796;10.952;2023-02-04T07:55:40;100816.03;;;2.67;100.00
18988;BME280;5494;51.796;10.952;2023-02-04T07:58:07;100818.72;;;2.79;100.00
18988;BME280;5494;51.796;10.952;2023-02-04T08:00:35;100821.94;;;2.63;100.00
18988;BME280;5494;51.796;10.952;2023-02-04T08:03:04;100817.72;;;2.66;100.00
18988;BME280;5494;51.796;10.952;2023-02-04T08:05:33;100828.13;;;2.80;100.00
18988;BME280;5494;51.796;10.952;2023-02-04T08:08:01;100827.38;;;2.92;100.00
18988;BME280;5494;51.796;10.952;2023-02-04T08:10:29;100842.13;;;3.08;100.00
18988;BME280;5494;51.796;10.952;2023-02-04T08:12:57;100838.00;;;3.27;100.00
18988;BME280;5494;51.796;10.952;2023-02-04T08:15:25;100847.50;;;3.35;100.00
18988;BME280;5494;51.796;10.952;2023-02-04T08:17:53;100857.03;;;3.47;100.00
18988;BME280;5494;51.796;10.952;2023-02-04T08:20:21;100858.81;;;3.55;100.00
18988;BME280;5494;51.796;10.952;2023-02-04T08:22:51;100866.59;;;3.68;100.00
18988;BME280;5494;51.796;10.952;2023-02-04T08:25:18;100859.78;;;3.71;100.00
18988;BME280;5494;51.796;10.952;2023-02-04T08:27:46;100865.00;;;3.79;100.00
18988;BME280;5494;51.796;10.952;2023-02-04T08:30:14;100862.41;;;3.77;100.00
18988;BME280;5494;51.796;10.952;2023-02-04T08:32:42;100873.59;;;3.84;100.00
18988;BME280;5494;51.796;10.952;2023-02-04T08:35:10;100872.78;;;3.91;100.00
18988;BME280;5494;51.796;10.952;2023-02-04T08:37:38;100879.72;;;4.00;100.00
18988;BME280;5494;51.796;10.952;2023-02-04T08:40:09;100883.09;;;3.92;100.00
18988;BME280;5494;51.796;10.952;2023-02-04T08:42:37;100882.25;;;3.92;100.00
18988;BME280;5494;51.796;10.952;2023-02-04T08:45:06;100884.88;;;4.03;100.00
18988;BME280;5494;51.796;10.952;2023-02-04T08:47:35;100880.69;;;4.23;100.00
18988;BME280;5494;51.796;10.952;2023-02-04T08:50:03;100884.16;;;4.29;100.00
18988;BME280;5494;51.796;10.952;2023-02-04T08:52:31;100885.13;;;4.42;100.00
18988;BME280;5494;51.796;10.952;2023-02-04T08:54:59;100895.44;;;4.48;100.00
18988;BME280;5494;51.796;10.952;2023-02-04T08:57:28;100904.09;;;4.62;100.00
18988;BME280;5494;51.796;10.952;2023-02-04T08:59:56;100904.16;;;4.81;100.00
18988;BME280;5494;51.796;10.952;2023-02-04T09:02:24;100896.47;;;5.00;100.00
18988;BME280;5494;51.796;10.952;2023-02-04T09:04:52;100899.09;;;5.11;100.00
18988;BME280;5494;51.796;10.952;2023-02-04T09:07:20;100900.81;;;5.15;100.00
18988;BME280;5494;51.796;10.952;2023-02-04T09:09:48;100907.63;;;4.92;100.00
18988;BME280;5494;51.796;10.952;2023-02-04T09:12:16;100912.59;;;4.48;100.00
18988;BME280;5494;51.796;10.952;2023-02-04T09:14:45;100919.22;;;4.11;100.00
18988;BME280;5494;51.796;10.952;2023-02-04T09:17:13;100907.25;;;4.16;100.00
18988;BME280;5494;51.796;10.952;2023-02-04T09:19:42;100916.53;;;3.92;100.00
18988;BME280;5494;51.796;10.952;2023-02-04T09:22:10;100912.16;;;3.81;100.00
18988;BME280;5494;51.796;10.952;2023-02-04T09:24:38;100927.09;;;3.25;100.00
18988;BME280;5494;51.796;10.952;2023-02-04T09:27:06;100926.81;;;3.00;100.00
18988;BME280;5494;51.796;10.952;2023-02-04T09:29:34;100932.75;;;2.96;100.00
18988;BME280;5494;51.796;10.952;2023-02-04T09:32:04;100939.53;;;2.91;100.00
18988;BME280;5494;51.796;10.952;2023-02-04T09:34:32;100942.00;;;2.84;100.00
18988;BME280;5494;51.796;10.952;2023-02-04T09:37:01;100945.75;;;3.08;100.00
18988;BME280;5494;51.796;10.952;2023-02-04T09:39:29;100942.50;;;3.28;100.00
18988;BME280;5494;51.796;10.952;2023-02-04T09:41:59;100942.53;;;4.27;100.00
18988;BME280;5494;51.796;10.952;2023-02-04T09:44:28;100943.22;;;4.05;100.00
18988;BME280;5494;51.796;10.952;2023-02-04T09:46:59;100943.22;;;4.05;100.00
18988;BME280;5494;51.796;10.952;2023-02-04T09:49:28;100942.44;;;4.17;100.00
18988;BME280;5494;51.796;10.952;2023-02-04T09:51:57;100946.06;;;4.48;100.00
18988;BME280;5494;51.796;10.952;2023-02-04T09:54:25;100954.00;;;4.87;99.10
18988;BME280;5494;51.796;10.952;2023-02-04T09:56:53;100956.69;;;5.21;96.25
18988;BME280;5494;51.796;10.952;2023-02-04T09:59:26;100955.88;;;5.43;96.05
18988;BME280;5494;51.796;10.952;2023-02-04T10:01:59;100971.19;;;4.93;93.32
18988;BME280;5494;51.796;10.952;2023-02-04T10:04:28;100957.59;;;5.47;95.33
18988;BME280;5494;51.796;10.952;2023-02-04T10:06:56;100961.03;;;5.43;93.57
18988;BME280;5494;51.796;10.952;2023-02-04T10:09:25;100960.22;;;5.58;95.41
18988;BME280;5494;51.796;10.952;2023-02-04T10:11:53;100966.19;;;5.32;94.65
18988;BME280;5494;51.796;10.952;2023-02-04T10:14:22;100963.63;;;5.38;94.70
18988;BME280;5494;51.796;10.952;2023-02-04T10:16:55;100963.50;;;5.06;94.83
18988;BME280;5494;51.796;10.952;2023-02-04T10:19:27;100953.97;;;4.77;97.26
18988;BME280;5494;51.796;10.952;2023-02-04T10:21:57;100966.06;;;5.02;99.48
18988;BME280;5494;51.796;10.952;2023-02-04T10:24:27;100955.81;;;5.11;98.96
18988;BME280;5494;51.796;10.952;2023-02-04T10:27:06;100967.00;;;5.16;98.48
18988;BME280;5494;51.796;10.952;2023-02-04T10:29:35;100970.47;;;5.35;98.81
18988;BME280;5494;51.796;10.952;2023-02-04T10:32:03;100974.81;;;5.52;93.88
18988;BME280;5494;51.796;10.952;2023-02-04T10:34:36;100967.09;;;5.59;91.26
18988;BME280;5494;51.796;10.952;2023-02-04T10:37:18;100979.06;;;5.40;91.50
18988;BME280;5494;51.796;10.952;2023-02-04T10:39:46;100970.47;;;5.35;88.64
18988;BME280;5494;51.796;10.952;2023-02-04T10:42:21;100967.91;;;5.39;89.93
18988;BME280;5494;51.796;10.952;2023-02-04T10:44:50;100966.22;;;5.50;91.96
18988;BME280;5494;51.796;10.952;2023-02-04T10:47:20;100973.94;;;5.38;91.20
18988;BME280;5494;51.796;10.952;2023-02-04T10:49:55;100978.13;;;5.03;90.31
18988;BME280;5494;51.796;10.952;2023-02-04T10:52:33;100973.75;;;4.88;89.75
18988;BME280;5494;51.796;10.952;2023-02-04T10:55:03;100972.09;;;4.98;88.53
18988;BME280;5494;51.796;10.952;2023-02-04T10:57:38;100976.41;;;5.03;87.88
18988;BME280;5494;51.796;10.952;2023-02-04T11:00:16;100979.84;;;5.04;88.20
18988;BME280;5494;51.796;10.952;2023-02-04T11:02:56;100976.38;;;5.02;88.65
18988;BME280;5494;51.796;10.952;2023-02-04T11:05:30;100975.69;;;5.51;87.70
18988;BME280;5494;51.796;10.952;2023-02-04T11:08:00;100980.88;;;5.79;87.13
18988;BME280;5494;51.796;10.952;2023-02-04T11:10:32;100988.66;;;6.00;84.62
18988;BME280;5494;51.796;10.952;2023-02-04T11:13:04;100986.94;;;6.14;82.46
18988;BME280;5494;51.796;10.952;2023-02-04T11:15:46;100990.38;;;6.25;80.48
18988;BME280;5494;51.796;10.952;2023-02-04T11:18:28;100985.22;;;6.19;81.55
18988;BME280;5494;51.796;10.952;2023-02-04T11:20:58;100992.97;;;6.25;81.92
18988;BME280;5494;51.796;10.952;2023-02-04T11:23:35;100987.78;;;6.27;82.19
18988;BME280;5494;51.796;10.952;2023-02-04T11:26:10;100991.25;;;6.21;82.45
18988;BME280;5494;51.796;10.952;2023-02-04T11:28:54;100984.34;;;6.29;81.46
18988;BME280;5494;51.796;10.952;2023-02-04T11:31:55;100982.59;;;6.38;80.33
18988;BME280;5494;51.796;10.952;2023-02-04T11:34:28;100987.75;;;6.54;79.08
18988;BME280;5494;51.796;10.952;2023-02-04T11:39:57;100996.31;;;6.73;76.33
18988;BME280;5494;51.796;10.952;2023-02-04T11:42:37;100997.22;;;6.61;77.51
18988;BME280;5494;51.796;10.952;2023-02-04T11:45:14;101003.28;;;6.41;77.81
18988;BME280;5494;51.796;10.952;2023-02-04T11:47:43;101012.75;;;6.48;77.70
18988;BME280;5494;51.796;10.952;2023-02-04T11:50:18;101004.97;;;6.52;77.84
18988;BME280;5494;51.796;10.952;2023-02-04T11:52:49;101002.41;;;6.39;77.92
18988;BME280;5494;51.796;10.952;2023-02-04T11:55:17;101010.16;;;6.42;78.85
18988;BME280;5494;51.796;10.952;2023-02-04T11:57:51;101010.19;;;6.36;79.18
18988;BME280;5494;51.796;10.952;2023-02-04T12:00:22;101008.44;;;6.39;78.72
18988;BME280;5494;51.796;10.952;2023-02-04T12:03:00;101010.16;;;6.40;77.58
18988;BME280;5494;51.796;10.952;2023-02-04T12:05:38;101014.47;;;6.11;79.98
18988;BME280;5494;51.796;10.952;2023-02-04T12:08:24;101019.66;;;6.06;81.20
18988;BME280;5494;51.796;10.952;2023-02-04T12:11:03;101013.63;;;6.01;80.92
18988;BME280;5494;51.796;10.952;2023-02-04T12:13:45;101014.47;;;6.06;80.86
18988;BME280;5494;51.796;10.952;2023-02-04T12:16:13;101013.63;;;6.04;81.39
18988;BME280;5494;51.796;10.952;2023-02-04T12:18:41;101015.31;;;6.10;78.57
18988;BME280;5494;51.796;10.952;2023-02-04T12:21:09;101009.31;;;5.92;77.42
18988;BME280;5494;51.796;10.952;2023-02-04T12:23:39;101017.91;;;5.99;77.81
18988;BME280;5494;51.796;10.952;2023-02-04T12:26:11;101018.78;;;6.13;77.44
18988;BME280;5494;51.796;10.952;2023-02-04T12:28:39;101017.91;;;6.23;76.51
18988;BME280;5494;51.796;10.952;2023-02-04T12:31:07;101009.28;;;6.38;74.39
18988;BME280;5494;51.796;10.952;2023-02-04T12:33:35;101014.50;;;6.29;75.38
18988;BME280;5494;51.796;10.952;2023-02-04T12:36:04;101014.47;;;6.24;75.27
18988;BME280;5494;51.796;10.952;2023-02-04T12:38:32;101018.78;;;6.27;73.52
18988;BME280;5494;51.796;10.952;2023-02-04T12:41:01;101021.38;;;6.01;73.35
18988;BME280;5494;51.796;10.952;2023-02-04T12:43:29;101019.63;;;5.88;69.23
18988;BME280;5494;51.796;10.952;2023-02-04T12:45:57;101028.13;;;5.67;70.52
18988;BME280;5494;51.796;10.952;2023-02-04T12:48:25;101019.56;;;5.64;71.32
18988;BME280;5494;51.796;10.952;2023-02-04T12:50:53;101035.88;;;5.67;71.93
18988;BME280;5494;51.796;10.952;2023-02-04T12:53:21;101025.53;;;5.44;67.93
18988;BME280;5494;51.796;10.952;2023-02-04T12:55:49;101038.47;;;5.69;66.25
18988;BME280;5494;51.796;10.952;2023-02-04T12:58:18;101030.75;;;5.75;66.22
18988;BME280;5494;51.796;10.952;2023-02-04T13:00:46;101036.69;;;5.43;66.79
18988;BME280;5494;51.796;10.952;2023-02-04T13:03:14;101045.22;;;5.33;66.43
18988;BME280;5494;51.796;10.952;2023-02-04T13:05:42;101040.06;;;5.33;68.03
18988;BME280;5494;51.796;10.952;2023-02-04T13:08:10;101044.38;;;5.33;70.37